createdAt,value
2018-02-27T00:01:13.993Z,63.13
2018-02-27T00:03:43.236Z,62.82
2018-02-27T00:06:11.867Z,63.14
2018-02-27T00:08:40.137Z,63.09
2018-02-27T00:11:08.416Z,63.51
2018-02-27T00:13:36.667Z,63.51
2018-02-27T00:16:05.705Z,63.84
2018-02-27T00:18:33.966Z,63.75
2018-02-27T00:21:03.011Z,64.03
2018-02-27T00:23:31.268Z,63.58
2018-02-27T00:25:59.546Z,64.35
2018-02-27T00:28:28.568Z,64.30
2018-02-27T00:30:56.840Z,64.21
2018-02-27T00:33:25.877Z,63.69
2018-02-27T00:35:54.154Z,63.59
2018-02-27T00:38:22.410Z,63.39
2018-02-27T00:40:50.687Z,63.27
2018-02-27T00:43:18.962Z,63.63
2018-02-27T00:45:47.343Z,63.60
2018-02-27T00:48:15.609Z,64.19
2018-02-27T00:50:43.951Z,63.76
2018-02-27T00:53:12.224Z,63.74
2018-02-27T00:55:40.491Z,64.04
2018-02-27T00:58:08.748Z,64.36
2018-02-27T01:00:37.008Z,64.57
2018-02-27T01:03:05.284Z,64.62
2018-02-27T01:05:33.549Z,65.13
2018-02-27T01:08:01.843Z,64.75
2018-02-27T01:10:30.140Z,64.95
2018-02-27T01:12:58.417Z,64.84
2018-02-27T01:15:26.691Z,64.36
2018-02-27T01:17:55.740Z,64.89
2018-02-27T01:20:24.004Z,64.67
2018-02-27T01:22:52.293Z,65.18
2018-02-27T01:25:20.565Z,65.47
2018-02-27T01:27:48.841Z,65.72
2018-02-27T01:30:17.136Z,65.73
2018-02-27T01:32:46.242Z,65.91
2018-02-27T01:35:15.294Z,65.99
2018-02-27T01:37:43.629Z,66.00
2018-02-27T01:40:12.706Z,65.77
2018-02-27T01:42:40.983Z,65.58
2018-02-27T01:45:09.259Z,65.46
2018-02-27T01:47:37.545Z,65.71
2018-02-27T01:50:05.810Z,65.71
2018-02-27T01:52:34.084Z,65.10
2018-02-27T01:55:03.112Z,65.78
2018-02-27T01:57:31.397Z,66.43
2018-02-27T02:00:00.465Z,66.73
2018-02-27T02:02:28.745Z,66.90
2018-02-27T02:04:57.018Z,66.40
2018-02-27T02:07:25.296Z,66.52
2018-02-27T02:09:53.567Z,66.82
2018-02-27T02:12:21.873Z,66.60
2018-02-27T02:14:50.140Z,66.48
2018-02-27T02:17:18.409Z,66.61
2018-02-27T02:19:47.500Z,66.69
2018-02-27T02:22:15.777Z,65.34
2018-02-27T02:24:44.089Z,65.67
2018-02-27T02:27:13.164Z,65.57
2018-02-27T02:29:41.793Z,65.25
2018-02-27T02:32:10.837Z,64.47
2018-02-27T02:34:39.138Z,64.97
2018-02-27T02:37:07.455Z,64.73
2018-02-27T02:39:35.740Z,65.17
2018-02-27T02:42:24.739Z,65.37
2018-02-27T02:44:53.027Z,65.06
2018-02-27T02:47:22.819Z,65.61
2018-02-27T02:49:51.899Z,65.53
2018-02-27T02:52:20.186Z,65.35
2018-02-27T02:54:48.461Z,64.89
2018-02-27T02:57:17.520Z,65.23
2018-02-27T02:59:45.804Z,65.38
2018-02-27T03:02:14.089Z,65.75
2018-02-27T03:04:42.446Z,65.25
2018-02-27T03:07:10.762Z,65.49
2018-02-27T03:09:39.040Z,65.29
2018-02-27T03:12:07.306Z,65.63
2018-02-27T03:17:07.604Z,64.59
2018-02-27T03:19:35.897Z,64.76
2018-02-27T03:22:04.265Z,64.72
2018-02-27T03:24:32.595Z,64.30
2018-02-27T03:27:00.884Z,64.49
2018-02-27T03:29:29.166Z,64.08
2018-02-27T03:31:57.440Z,64.28
2018-02-27T03:34:25.726Z,64.33
2018-02-27T03:36:53.989Z,64.50
2018-02-27T03:39:23.037Z,65.15
2018-02-27T03:41:51.311Z,64.65
2018-02-27T03:44:19.616Z,64.87
2018-02-27T03:46:47.892Z,64.88
2018-02-27T03:49:16.185Z,65.05
2018-02-27T03:51:44.541Z,65.10
2018-02-27T03:54:13.598Z,64.75
2018-02-27T03:56:41.929Z,65.32
2018-02-27T03:59:10.209Z,65.35
2018-02-27T04:01:38.501Z,66.02
2018-02-27T04:04:06.760Z,66.04
2018-02-27T04:06:35.037Z,65.85
2018-02-27T04:09:03.316Z,66.08
2018-02-27T04:11:32.408Z,66.30
2018-02-27T04:14:00.908Z,65.93
2018-02-27T04:16:29.224Z,65.40
2018-02-27T04:18:57.498Z,65.55
2018-02-27T04:21:25.798Z,65.67
2018-02-27T04:23:54.077Z,66.12
2018-02-27T04:26:22.355Z,66.68
2018-02-27T04:28:51.387Z,66.66
2018-02-27T04:31:19.664Z,65.96
2018-02-27T04:33:47.965Z,66.49
2018-02-27T04:36:16.273Z,66.93
2018-02-27T04:38:44.565Z,67.35
2018-02-27T04:41:12.894Z,67.64
2018-02-27T04:43:41.173Z,67.50
2018-02-27T04:46:09.476Z,67.99
2018-02-27T04:48:37.797Z,68.35
2018-02-27T04:51:06.786Z,68.76
2018-02-27T04:53:35.060Z,68.98
2018-02-27T04:56:03.371Z,68.87
2018-02-27T04:58:32.413Z,68.38
2018-02-27T05:01:00.722Z,68.94
2018-02-27T05:03:28.986Z,68.37
2018-02-27T05:05:57.280Z,68.37
2018-02-27T05:08:25.571Z,66.98
2018-02-27T05:10:53.846Z,67.11
2018-02-27T05:13:22.124Z,67.59
2018-02-27T05:15:50.408Z,67.62
2018-02-27T05:18:18.677Z,67.91
2018-02-27T05:20:47.739Z,67.75
2018-02-27T05:23:16.018Z,68.25
2018-02-27T05:25:44.320Z,68.18
2018-02-27T05:28:12.649Z,67.83
2018-02-27T05:30:40.973Z,67.90
2018-02-27T05:33:09.240Z,67.65
2018-02-27T05:35:37.500Z,67.52
2018-02-27T05:38:06.562Z,67.65
2018-02-27T05:40:34.888Z,68.07
2018-02-27T05:43:03.228Z,68.15
2018-02-27T05:45:32.313Z,67.64
2018-02-27T05:48:00.665Z,68.13
2018-02-27T05:50:28.936Z,68.42
2018-02-27T05:52:57.216Z,68.07
2018-02-27T05:55:25.488Z,68.53
2018-02-27T05:57:53.771Z,68.65
2018-02-27T06:00:22.051Z,68.38
2018-02-27T06:02:50.349Z,67.84
2018-02-27T06:05:18.624Z,68.16
2018-02-27T06:07:47.844Z,68.58
2018-02-27T06:10:16.907Z,68.72
2018-02-27T06:12:45.232Z,68.93
2018-02-27T06:15:14.334Z,69.45
2018-02-27T06:17:43.572Z,68.91
2018-02-27T06:20:11.960Z,68.59
2018-02-27T06:22:40.250Z,68.17
2018-02-27T06:25:08.528Z,68.45
2018-02-27T06:27:36.824Z,67.90
2018-02-27T06:30:05.858Z,67.19
2018-02-27T06:32:34.141Z,67.12
2018-02-27T06:35:02.455Z,66.53
2018-02-27T06:37:31.626Z,65.96
2018-02-27T06:39:59.926Z,65.72
2018-02-27T06:42:28.209Z,65.38
2018-02-27T06:44:56.478Z,65.61
2018-02-27T06:47:24.778Z,65.48
2018-02-27T06:49:53.062Z,64.45
2018-02-27T06:52:21.349Z,63.75
2018-02-27T06:54:50.379Z,63.64
2018-02-27T06:57:18.688Z,63.48
2018-02-27T06:59:47.008Z,63.73
2018-02-27T07:02:15.297Z,63.58
2018-02-27T07:04:43.648Z,63.62
2018-02-27T07:07:11.955Z,61.57
2018-02-27T07:09:40.241Z,61.99
2018-02-27T07:12:08.513Z,61.86
2018-02-27T07:14:36.772Z,61.54
2018-02-27T07:17:05.070Z,61.67
2018-02-27T07:19:33.368Z,62.02
2018-02-27T07:22:01.673Z,60.82
2018-02-27T07:24:29.951Z,60.93
2018-02-27T07:26:58.209Z,61.70
2018-02-27T07:29:27.885Z,60.04
2018-02-27T07:31:56.153Z,60.48
2018-02-27T07:34:24.433Z,60.66
2018-02-27T07:36:52.715Z,60.52
2018-02-27T07:39:20.988Z,60.57
2018-02-27T07:41:50.018Z,60.63
2018-02-27T07:44:18.316Z,60.73
2018-02-27T07:46:46.599Z,60.81
2018-02-27T07:49:14.949Z,61.25
2018-02-27T07:51:43.257Z,60.89
2018-02-27T07:54:11.589Z,60.44
2018-02-27T07:56:39.918Z,59.63
2018-02-27T07:59:09.005Z,60.13
2018-02-27T08:01:37.287Z,60.49
2018-02-27T08:04:05.582Z,60.37
2018-02-27T08:06:33.882Z,59.41
2018-02-27T08:09:02.164Z,58.95
2018-02-27T08:11:31.218Z,58.94
2018-02-27T08:13:59.521Z,58.66
2018-02-27T08:16:27.802Z,58.17
2018-02-27T08:18:56.082Z,57.88
2018-02-27T08:21:25.138Z,57.77
2018-02-27T08:23:53.432Z,56.82
2018-02-27T08:26:21.698Z,55.55
2018-02-27T08:28:49.985Z,55.72
2018-02-27T08:31:18.270Z,56.75
2018-02-27T08:33:46.631Z,55.41
2018-02-27T08:36:14.874Z,55.00
2018-02-27T08:38:43.192Z,55.89
2018-02-27T08:41:12.306Z,56.45
2018-02-27T08:43:41.384Z,55.14
2018-02-27T08:46:11.434Z,55.25
2018-02-27T08:48:39.740Z,54.57
2018-02-27T08:51:08.790Z,55.71
2018-02-27T08:53:37.063Z,55.19
2018-02-27T08:56:05.332Z,55.17
2018-02-27T08:58:34.448Z,54.55
2018-02-27T09:01:03.503Z,55.12
2018-02-27T09:03:32.552Z,53.93
2018-02-27T09:06:01.622Z,55.32
2018-02-27T09:08:29.908Z,54.77
2018-02-27T09:10:58.171Z,53.95
2018-02-27T09:13:26.452Z,52.85
2018-02-27T09:15:54.720Z,53.37
2018-02-27T09:18:24.136Z,54.55
2018-02-27T09:20:54.026Z,53.85
2018-02-27T09:23:22.336Z,54.24
2018-02-27T09:25:50.602Z,54.26
2018-02-27T09:28:18.850Z,54.65
2018-02-27T09:30:47.924Z,54.30
2018-02-27T09:33:16.269Z,54.16
2018-02-27T09:35:44.717Z,54.31
2018-02-27T09:38:14.586Z,52.16
2018-02-27T09:40:42.966Z,51.41
2018-02-27T09:43:11.228Z,51.62
2018-02-27T09:45:40.305Z,51.06
2018-02-27T09:48:08.571Z,50.73
2018-02-27T09:50:36.848Z,51.63
2018-02-27T09:53:05.109Z,50.90
2018-02-27T09:55:34.822Z,51.18
2018-02-27T09:58:03.860Z,51.03
2018-02-27T10:00:32.150Z,52.53
2018-02-27T10:03:00.476Z,52.46
2018-02-27T10:05:28.761Z,52.43
2018-02-27T10:07:57.051Z,51.29
2018-02-27T10:10:25.328Z,49.51
2018-02-27T10:12:53.601Z,50.27
2018-02-27T10:15:21.916Z,50.69
2018-02-27T10:17:50.179Z,52.24
2018-02-27T10:20:18.515Z,51.99
2018-02-27T10:22:46.836Z,51.35
2018-02-27T10:25:15.234Z,52.29
2018-02-27T10:27:44.308Z,51.80
2018-02-27T10:30:12.722Z,51.37
2018-02-27T10:32:41.019Z,50.90
2018-02-27T10:35:09.311Z,50.46
2018-02-27T10:37:37.584Z,51.14
2018-02-27T10:40:06.629Z,50.42
2018-02-27T10:42:34.889Z,51.91
2018-02-27T10:45:03.932Z,50.57
2018-02-27T10:47:32.354Z,49.02
2018-02-27T10:50:01.050Z,46.74
2018-02-27T10:52:29.349Z,45.80
2018-02-27T10:54:57.687Z,45.75
2018-02-27T10:57:25.917Z,45.33
2018-02-27T10:59:54.196Z,45.47
2018-02-27T11:02:22.471Z,46.37
2018-02-27T11:04:50.808Z,45.23
2018-02-27T11:07:19.089Z,43.96
2018-02-27T11:09:47.447Z,43.72
2018-02-27T11:12:15.771Z,44.41
2018-02-27T11:14:44.149Z,46.02
2018-02-27T11:17:12.464Z,45.05
2018-02-27T11:19:40.770Z,45.30
2018-02-27T11:22:09.812Z,45.11
2018-02-27T11:24:38.075Z,44.86
2018-02-27T11:27:06.344Z,45.05
2018-02-27T11:29:35.376Z,45.14
2018-02-27T11:32:03.652Z,45.72
2018-02-27T11:34:32.720Z,44.47
2018-02-27T11:37:01.008Z,44.57
2018-02-27T11:39:29.274Z,44.56
2018-02-27T11:41:57.546Z,46.37
2018-02-27T11:44:25.802Z,45.95
2018-02-27T11:46:54.854Z,45.18
2018-02-27T11:49:23.156Z,44.82
2018-02-27T11:51:52.173Z,45.38
2018-02-27T11:54:20.440Z,45.25
2018-02-27T11:56:48.714Z,44.59
2018-02-27T11:59:17.032Z,44.86
2018-02-27T12:01:45.461Z,44.95
2018-02-27T12:04:14.566Z,43.81
2018-02-27T12:06:42.922Z,42.67
2018-02-27T12:09:11.214Z,43.00
2018-02-27T12:11:39.496Z,43.73
2018-02-27T12:14:07.789Z,44.49
2018-02-27T12:16:36.085Z,43.18
2018-02-27T12:19:04.374Z,44.32
2018-02-27T12:21:32.657Z,42.92
2018-02-27T12:24:00.949Z,43.36
2018-02-27T12:26:29.276Z,42.96
2018-02-27T12:28:57.493Z,43.14
2018-02-27T12:31:25.773Z,42.73
2018-02-27T12:33:54.808Z,41.71
2018-02-27T12:36:23.089Z,40.98
2018-02-27T12:38:51.345Z,42.24
2018-02-27T12:41:20.376Z,41.04
2018-02-27T12:43:48.632Z,41.27
2018-02-27T12:46:17.125Z,41.51
2018-02-27T12:48:45.418Z,45.75
2018-02-27T12:51:13.744Z,40.23
2018-02-27T12:53:42.017Z,41.03
2018-02-27T12:56:10.288Z,41.08
2018-02-27T12:58:39.345Z,41.74
2018-02-27T13:01:07.624Z,39.55
2018-02-27T13:03:35.880Z,40.87
2018-02-27T13:06:05.655Z,40.87
2018-02-27T13:08:33.918Z,39.05
2018-02-27T13:11:02.227Z,40.89
2018-02-27T13:13:30.539Z,40.81
2018-02-27T13:15:58.836Z,42.16
2018-02-27T13:18:27.101Z,41.65
2018-02-27T13:20:55.393Z,42.80
2018-02-27T13:23:23.665Z,42.53
2018-02-27T13:25:51.969Z,43.25
2018-02-27T13:28:20.327Z,42.74
2018-02-27T13:30:49.012Z,43.26
2018-02-27T13:33:18.796Z,43.76
2018-02-27T13:35:47.088Z,44.08
2018-02-27T13:38:15.549Z,42.80
2018-02-27T13:40:44.026Z,42.45
2018-02-27T13:43:12.841Z,41.53
2018-02-27T13:45:41.392Z,41.51
2018-02-27T13:48:09.769Z,41.05
2018-02-27T13:50:39.267Z,40.46
2018-02-27T13:53:07.854Z,40.81
2018-02-27T13:55:36.370Z,41.50
2018-02-27T13:58:04.704Z,41.23
2018-02-27T14:00:33.724Z,42.20
2018-02-27T14:03:02.030Z,42.19
2018-02-27T14:05:30.418Z,41.97
2018-02-27T14:07:58.799Z,41.28
2018-02-27T14:10:27.060Z,41.36
2018-02-27T14:12:56.112Z,41.72
2018-02-27T14:15:24.471Z,42.76
2018-02-27T14:17:53.508Z,42.29
2018-02-27T14:20:22.110Z,41.85
2018-02-27T14:22:50.382Z,41.58
2018-02-27T14:25:18.849Z,41.55
2018-02-27T14:27:48.236Z,42.77
2018-02-27T14:30:16.557Z,42.58
2018-02-27T14:32:45.897Z,41.85
2018-02-27T14:35:15.117Z,41.65
2018-02-27T14:37:43.630Z,41.90
2018-02-27T14:40:12.120Z,41.63
2018-02-27T14:42:40.416Z,42.67
2018-02-27T14:45:08.671Z,41.97
2018-02-27T14:47:36.983Z,42.55
2018-02-27T14:50:05.242Z,42.62
2018-02-27T14:52:34.326Z,43.15
2018-02-27T14:55:03.405Z,43.08
2018-02-27T14:57:31.684Z,43.12
2018-02-27T14:59:59.984Z,41.81
2018-02-27T15:02:29.045Z,41.82
2018-02-27T15:04:58.068Z,42.01
2018-02-27T15:07:26.363Z,42.24
2018-02-27T15:09:54.612Z,42.43
2018-02-27T15:12:23.660Z,42.35
2018-02-27T15:14:51.937Z,42.66
2018-02-27T15:17:20.240Z,42.78
2018-02-27T15:19:48.504Z,43.68
2018-02-27T15:22:17.645Z,43.16
2018-02-27T15:24:45.992Z,43.69
2018-02-27T15:27:15.087Z,42.51
2018-02-27T15:29:43.485Z,43.68
2018-02-27T15:32:12.644Z,43.21
2018-02-27T15:34:41.009Z,43.51
2018-02-27T15:37:09.319Z,43.61
2018-02-27T15:39:37.604Z,43.24
2018-02-27T15:42:05.884Z,43.15
2018-02-27T15:44:34.157Z,43.34
2018-02-27T15:47:03.191Z,43.38
2018-02-27T15:49:31.469Z,43.43
2018-02-27T15:51:59.734Z,43.67
2018-02-27T15:54:28.802Z,43.66
2018-02-27T15:56:57.087Z,43.57
2018-02-27T15:59:25.398Z,43.67
2018-02-27T16:01:53.656Z,43.74
2018-02-27T16:04:21.968Z,44.39
2018-02-27T16:06:51.004Z,44.33
2018-02-27T16:09:20.057Z,43.80
2018-02-27T16:11:48.332Z,43.99
2018-02-27T16:14:16.726Z,44.24
2018-02-27T16:16:45.059Z,44.55
2018-02-27T16:19:14.212Z,44.62
2018-02-27T16:21:42.583Z,44.72
2018-02-27T16:24:12.324Z,44.77
2018-02-27T16:26:40.623Z,45.14
2018-02-27T16:29:08.974Z,45.40
2018-02-27T16:31:38.016Z,45.71
2018-02-27T16:34:06.298Z,45.91
2018-02-27T16:36:34.590Z,46.25
2018-02-27T16:39:02.901Z,46.52
2018-02-27T16:41:31.177Z,46.24
2018-02-27T16:43:59.473Z,46.84
2018-02-27T16:46:27.788Z,46.21
2018-02-27T16:48:56.087Z,46.01
2018-02-27T16:51:24.362Z,45.62
2018-02-27T16:53:52.660Z,45.73
2018-02-27T16:56:20.960Z,45.94
2018-02-27T16:58:49.244Z,45.85
2018-02-27T17:01:17.532Z,46.12
2018-02-27T17:03:45.876Z,46.30
2018-02-27T17:06:14.986Z,46.63
2018-02-27T17:08:43.350Z,46.81
2018-02-27T17:11:11.645Z,46.82
2018-02-27T17:13:40.740Z,47.09
2018-02-27T17:16:09.057Z,47.08
2018-02-27T17:18:37.342Z,46.94
2018-02-27T17:21:06.383Z,46.97
2018-02-27T17:23:34.664Z,47.58
2018-02-27T17:26:04.110Z,47.80
2018-02-27T17:28:32.383Z,47.71
2018-02-27T17:31:00.720Z,47.73
2018-02-27T17:33:29.821Z,47.77
2018-02-27T17:35:58.953Z,47.56
2018-02-27T17:38:27.272Z,47.78
2018-02-27T17:40:55.548Z,48.26
2018-02-27T17:43:23.809Z,48.65
2018-02-27T17:45:52.868Z,48.71
2018-02-27T17:48:21.136Z,48.71
2018-02-27T17:50:49.432Z,48.76
2018-02-27T17:53:17.711Z,49.35
2018-02-27T17:55:47.758Z,49.09
2018-02-27T17:58:16.552Z,49.23
2018-02-27T18:00:44.850Z,52.34
2018-02-27T18:03:13.801Z,49.21
2018-02-27T18:05:42.110Z,49.12
2018-02-27T18:08:11.456Z,49.32
2018-02-27T18:10:39.735Z,49.47
2018-02-27T18:13:08.005Z,49.08
2018-02-27T18:15:37.054Z,49.68
2018-02-27T18:18:05.328Z,49.65
2018-02-27T18:20:33.621Z,49.28
2018-02-27T18:23:02.681Z,49.66
2018-02-27T18:25:33.565Z,49.69
2018-02-27T18:28:01.857Z,50.49
2018-02-27T18:30:32.187Z,50.23
2018-02-27T18:33:00.561Z,50.75
2018-02-27T18:35:31.612Z,51.02
2018-02-27T18:37:59.909Z,50.84
2018-02-27T18:40:28.972Z,51.01
2018-02-27T18:42:57.248Z,51.20
2018-02-27T18:45:25.525Z,51.20
2018-02-27T18:47:53.757Z,51.47
2018-02-27T18:50:22.069Z,51.38
2018-02-27T18:52:51.123Z,51.41
2018-02-27T18:55:19.393Z,51.80
2018-02-27T18:57:47.665Z,52.20
2018-02-27T19:00:15.975Z,52.28
2018-02-27T19:02:45.044Z,53.12
2018-02-27T19:05:13.347Z,53.26
2018-02-27T19:07:41.686Z,54.00
2018-02-27T19:10:10.024Z,55.02
2018-02-27T19:12:40.007Z,55.02
2018-02-27T19:15:08.450Z,55.14
2018-02-27T19:17:36.982Z,55.42
2018-02-27T19:20:06.093Z,55.85
2018-02-27T19:22:34.544Z,56.42
2018-02-27T19:25:04.617Z,56.27
2018-02-27T19:27:33.342Z,57.04
2018-02-27T19:30:01.926Z,56.43
2018-02-27T19:32:31.029Z,56.54
2018-02-27T19:34:59.573Z,57.33
2018-02-27T19:37:28.722Z,56.57
2018-02-27T19:39:57.138Z,57.56
2018-02-27T19:42:25.851Z,57.78
2018-02-27T19:44:54.651Z,57.60
2018-02-27T19:47:23.133Z,57.67
2018-02-27T19:49:51.461Z,58.09
2018-02-27T19:52:20.512Z,58.41
2018-02-27T19:54:48.930Z,58.69
2018-02-27T19:57:17.297Z,58.17
2018-02-27T19:59:45.620Z,58.69
2018-02-27T20:02:14.795Z,59.00
2018-02-27T20:04:43.133Z,59.31
2018-02-27T20:07:12.243Z,59.94
2018-02-27T20:09:41.391Z,59.73
2018-02-27T20:12:09.743Z,59.96
2018-02-27T20:14:38.785Z,60.92
2018-02-27T20:17:07.169Z,61.38
2018-02-27T20:19:35.415Z,61.59
2018-02-27T20:22:03.785Z,61.15
2018-02-27T20:24:32.146Z,61.58
2018-02-27T20:27:00.608Z,61.23
2018-02-27T20:29:30.267Z,62.17
2018-02-27T20:31:58.573Z,62.13
2018-02-27T20:34:33.680Z,61.95
2018-02-27T20:37:01.984Z,62.08
2018-02-27T20:39:30.446Z,62.69
2018-02-27T20:41:58.921Z,62.81
2018-02-27T20:44:27.212Z,63.42
2018-02-27T20:46:55.502Z,62.85
2018-02-27T20:49:23.755Z,63.21
2018-02-27T20:51:52.063Z,62.52
2018-02-27T20:54:21.104Z,62.85
2018-02-27T20:56:50.217Z,63.16
2018-02-27T20:59:19.990Z,64.25
2018-02-27T21:01:48.467Z,64.69
2018-02-27T21:04:16.761Z,65.22
2018-02-27T21:06:45.181Z,64.95
2018-02-27T21:09:13.626Z,65.28
2018-02-27T21:11:42.104Z,64.85
2018-02-27T21:14:11.141Z,65.09
2018-02-27T21:16:39.431Z,65.13
2018-02-27T21:19:08.509Z,65.13
2018-02-27T21:21:37.561Z,67.05
2018-02-27T21:24:05.844Z,65.16
2018-02-27T21:26:34.146Z,64.53
2018-02-27T21:29:02.535Z,64.34
2018-02-27T21:31:30.801Z,64.65
2018-02-27T21:33:59.076Z,64.90
2018-02-27T21:36:28.136Z,65.16
2018-02-27T21:38:56.474Z,64.86
2018-02-27T21:41:25.894Z,65.37
2018-02-27T21:43:54.948Z,66.03
2018-02-27T21:46:23.248Z,65.73
2018-02-27T21:48:51.499Z,66.03
2018-02-27T21:51:19.785Z,65.96
2018-02-27T21:53:48.100Z,65.84
2018-02-27T21:56:16.415Z,64.60
2018-02-27T21:58:45.514Z,64.83
2018-02-27T22:01:13.840Z,65.20
2018-02-27T22:03:42.207Z,65.35
2018-02-27T22:06:10.464Z,66.04
2018-02-27T22:08:38.775Z,66.41
2018-02-27T22:11:07.053Z,65.71
2018-02-27T22:13:35.341Z,65.71
2018-02-27T22:16:03.665Z,67.08
2018-02-27T22:18:32.842Z,67.84
2018-02-27T22:21:01.117Z,67.86
2018-02-27T22:23:29.405Z,68.26
2018-02-27T22:25:57.671Z,68.33
2018-02-27T22:28:25.986Z,68.54
2018-02-27T22:30:54.258Z,68.58
2018-02-27T22:33:22.565Z,67.74
2018-02-27T22:35:50.938Z,67.56
2018-02-27T22:38:19.224Z,66.70
2018-02-27T22:40:47.557Z,66.58
2018-02-27T22:43:15.868Z,67.07
2018-02-27T22:45:44.964Z,67.59
2018-02-27T22:48:13.303Z,66.89
2018-02-27T22:50:41.663Z,65.96
2018-02-27T22:53:10.730Z,66.79
2018-02-27T22:55:39.020Z,66.46
2018-02-27T22:58:07.337Z,67.36
2018-02-27T23:00:44.504Z,68.15
2018-02-27T23:03:12.923Z,68.32
2018-02-27T23:05:42.633Z,67.70
2018-02-27T23:08:10.963Z,68.26
2018-02-27T23:10:40.090Z,68.48
2018-02-27T23:13:08.367Z,68.27
2018-02-27T23:15:37.426Z,68.38
2018-02-27T23:18:05.713Z,68.90
2018-02-27T23:20:34.000Z,68.82
2018-02-27T23:23:02.326Z,69.20
2018-02-27T23:25:34.089Z,68.83
2018-02-27T23:28:03.785Z,69.50
2018-02-27T23:30:32.195Z,68.86
2018-02-27T23:33:00.913Z,68.74
2018-02-27T23:35:29.991Z,68.99
2018-02-27T23:40:25.329Z,69.76
2018-02-27T23:42:53.616Z,69.74
2018-02-27T23:45:21.914Z,69.60
2018-02-27T23:47:50.177Z,70.00
2018-02-27T23:50:18.472Z,70.63
2018-02-27T23:52:46.767Z,70.42
2018-02-27T23:55:15.109Z,71.10
2018-02-27T23:57:43.432Z,71.02
